Nearby METAR Reports

 

KHQM - Hoquiam,WA, USA
Updated: 04/19/2019 10:53am
Mist, Overcast
Mist, Overcast
 Wind from WSW
Wind: WSW 9 mph , 15 km/h
Temperature: 52°F , 11°C
Dew Point: 52°F , 11°C
Humidity: 100%
Barometer: 30.03 inHg , 1016.9 hPa
Summary: Mist
Clouds: Overcast
Visibility: 5 miles , 8 km
Cloud details: Overcast 500 ft
2019/04/19 17:53 KHQM 191753Z AUTO 25008KT 5SM BR OVC005 11/11 A3003 RMK AO2 CIG 003V009 SLP171 60002 T01110111 10117 20106 53003